Time;durP1;ratioP1;P1;durP2;ratioP2;P2;SDS_P1;SDS_P2;PMS_P1;PMS_P2;Temp;Humidity;BMP_temperature;BMP_pressure;BME280_temperature;BME280_humidity;BME280_pressure;Samples;Min_cycle;Max_cycle;Signal;HPM_P1;HPM_P2
2022/01/21 00:00:26;;;;;;;9.35;3.10;;;;;;;;;;5044095;28;20194;-69
2022/01/21 00:02:53;;;;;;;10.88;3.22;;;;;;;;;;5043613;28;20198;-69
2022/01/21 00:05:21;;;;;;;4.60;2.83;;;;;;;;;;5043839;28;20224;-69
2022/01/21 00:07:48;;;;;;;10.68;3.50;;;;;;;;;;5043764;28;20269;-69
2022/01/21 00:10:15;;;;;;;8.63;3.22;;;;;;;;;;5044045;28;20225;-69
2022/01/21 00:12:41;;;;;;;7.78;2.83;;;;;;;;;;5043757;28;20189;-69
2022/01/21 00:15:10;;;;;;;8.50;2.92;;;;;;;;;;5043779;28;20265;-69
2022/01/21 00:17:37;;;;;;;8.50;3.00;;;;;;;;;;5043242;28;20197;-69
2022/01/21 00:31:05;;;;;;;8.40;2.85;;;;;;;;;;5043575;28;20336;-69
2022/01/21 00:33:32;;;;;;;13.93;3.45;;;;;;;;;;5043500;28;20354;-69
2022/01/21 00:35:59;;;;;;;7.38;2.70;;;;;;;;;;5043046;28;20190;-69
2022/01/21 00:38:29;;;;;;;6.30;3.33;;;;;;;;;;5043407;28;20447;-69
2022/01/21 00:40:58;;;;;;;5.88;2.78;;;;;;;;;;5043329;28;20205;-69
2022/01/21 00:43:31;;;;;;;10.25;3.03;;;;;;;;;;5043452;28;20205;-69
2022/01/21 00:45:57;;;;;;;10.85;3.28;;;;;;;;;;5042698;28;20277;-69
2022/01/21 00:48:24;;;;;;;8.07;2.97;;;;;;;;;;5043061;28;20197;-69
2022/01/21 00:50:50;;;;;;;11.05;3.05;;;;;;;;;;5043033;28;20205;-69
2022/01/21 00:53:16;;;;;;;8.40;3.00;;;;;;;;;;5043117;28;20206;-69
2022/01/21 00:55:45;;;;;;;4.25;2.42;;;;;;;;;;5042978;28;20459;-69
2022/01/21 00:58:11;;;;;;;11.02;3.33;;;;;;;;;;5042877;28;20268;-69
2022/01/21 01:00:37;;;;;;;3.95;2.65;;;;;;;;;;5042200;28;20189;-69
2022/01/21 01:03:04;;;;;;;10.57;3.50;;;;;;;;;;5043151;28;20515;-69
2022/01/21 01:05:31;;;;;;;6.78;2.90;;;;;;;;;;5042724;28;20224;-69
2022/01/21 01:07:59;;;;;;;9.10;2.60;;;;;;;;;;5042658;28;20198;-69
2022/01/21 01:10:39;;;;;;;9.98;2.90;;;;;;;;;;5042498;28;20220;-69
2022/01/21 01:21:15;;;;;;;8.38;2.90;;;;;;;;;;5042594;28;20201;-69
2022/01/21 01:24:02;;;;;;;9.23;2.75;;;;;;;;;;5042726;28;20220;-69
2022/01/21 01:29:13;;;;;;;6.68;2.60;;;;;;;;;;5042471;28;20221;-69
2022/01/21 01:31:40;;;;;;;8.10;2.45;;;;;;;;;;5042443;28;20198;-69
2022/01/21 01:34:06;;;;;;;7.20;2.80;;;;;;;;;;5042336;28;20193;-69
2022/01/21 01:36:33;;;;;;;5.88;2.30;;;;;;;;;;5042071;28;20377;-69
2022/01/21 01:39:08;;;;;;;6.93;2.78;;;;;;;;;;5042316;28;20194;-69
2022/01/21 01:41:38;;;;;;;8.50;2.63;;;;;;;;;;5042094;28;20193;-69
2022/01/21 01:49:36;;;;;;;7.13;2.90;;;;;;;;;;5042202;28;20252;-69
2022/01/21 01:52:04;;;;;;;9.35;2.95;;;;;;;;;;5041918;28;20198;-69
2022/01/21 01:54:32;;;;;;;10.07;3.05;;;;;;;;;;5042141;28;20205;-69
2022/01/21 01:56:59;;;;;;;9.20;3.42;;;;;;;;;;5042038;28;20529;-69
2022/01/21 01:59:26;;;;;;;3.08;1.88;;;;;;;;;;5042284;28;20190;-69
2022/01/21 02:01:55;;;;;;;7.97;3.00;;;;;;;;;;5041917;28;20197;-69
2022/01/21 02:04:21;;;;;;;8.85;2.28;;;;;;;;;;5042079;28;20205;-69
2022/01/21 02:06:49;;;;;;;6.03;2.53;;;;;;;;;;5041703;28;20221;-69
2022/01/21 02:09:15;;;;;;;6.30;2.38;;;;;;;;;;5041837;28;20214;-69
2022/01/21 02:11:42;;;;;;;11.40;3.08;;;;;;;;;;5041890;28;20198;-69
2022/01/21 02:14:12;;;;;;;7.18;2.75;;;;;;;;;;5041858;28;20205;-69
2022/01/21 02:16:54;;;;;;;11.10;3.20;;;;;;;;;;5041728;28;20229;-69
2022/01/21 02:22:07;;;;;;;12.05;3.17;;;;;;;;;;5041560;28;20531;-69
2022/01/21 02:24:47;;;;;;;7.40;2.67;;;;;;;;;;5041954;28;20248;-69
2022/01/21 02:27:14;;;;;;;7.40;2.97;;;;;;;;;;5041487;28;20256;-69
2022/01/21 02:29:46;;;;;;;6.68;3.58;;;;;;;;;;5041654;28;20228;-69
2022/01/21 02:32:13;;;;;;;11.55;2.53;;;;;;;;;;5041838;28;20332;-69
2022/01/21 02:34:39;;;;;;;5.82;2.85;;;;;;;;;;5041710;28;20198;-69
2022/01/21 02:37:07;;;;;;;8.70;3.05;;;;;;;;;;5041441;28;20280;-69
2022/01/21 02:39:34;;;;;;;7.60;3.08;;;;;;;;;;5041641;28;20194;-69
2022/01/21 02:42:00;;;;;;;9.05;3.60;;;;;;;;;;5041230;28;20205;-69
2022/01/21 02:44:27;;;;;;;8.57;2.88;;;;;;;;;;5041972;28;20516;-69
2022/01/21 02:46:56;;;;;;;10.80;3.03;;;;;;;;;;5040935;28;20197;-69
2022/01/21 02:49:23;;;;;;;10.80;3.38;;;;;;;;;;5045346;28;20252;-69
2022/01/21 02:51:49;;;;;;;11.57;3.47;;;;;;;;;;5045211;28;20198;-69
2022/01/21 02:54:17;;;;;;;12.25;2.97;;;;;;;;;;5045655;28;20402;-69
2022/01/21 02:56:43;;;;;;;13.38;3.72;;;;;;;;;;5045070;28;20204;-69
2022/01/21 02:59:10;;;;;;;6.03;2.97;;;;;;;;;;5045465;28;20411;-69
2022/01/21 03:01:38;;;;;;;7.13;3.20;;;;;;;;;;5045506;28;20194;-69
2022/01/21 03:04:05;;;;;;;8.15;2.88;;;;;;;;;;5045683;28;20353;-69
2022/01/21 03:06:32;;;;;;;12.43;3.58;;;;;;;;;;5044936;28;20451;-69
2022/01/21 03:08:59;;;;;;;11.80;3.38;;;;;;;;;;5045191;28;20198;-69
2022/01/21 03:11:28;;;;;;;9.23;2.67;;;;;;;;;;5045000;28;20194;-69
2022/01/21 03:13:54;;;;;;;9.40;2.92;;;;;;;;;;5044846;28;20204;-69
2022/01/21 03:16:21;;;;;;;10.05;3.22;;;;;;;;;;5044683;28;20214;-69
2022/01/21 03:18:47;;;;;;;9.45;3.45;;;;;;;;;;5044816;28;20205;-69
2022/01/21 03:21:16;;;;;;;20.30;3.97;;;;;;;;;;5044711;28;20201;-69
2022/01/21 03:23:46;;;;;;;11.10;3.05;;;;;;;;;;5045038;28;20276;-69
2022/01/21 03:26:14;;;;;;;6.38;2.65;;;;;;;;;;5044692;28;20479;-69
2022/01/21 03:28:42;;;;;;;6.78;2.80;;;;;;;;;;5044828;28;20204;-69
2022/01/21 03:31:09;;;;;;;11.10;2.65;;;;;;;;;;5044412;28;20213;-69
2022/01/21 03:33:35;;;;;;;8.73;3.00;;;;;;;;;;5044965;28;20586;-69
2022/01/21 03:36:01;;;;;;;5.82;2.65;;;;;;;;;;5044476;28;20198;-69
2022/01/21 03:38:28;;;;;;;5.80;2.17;;;;;;;;;;5044939;28;20193;-69
2022/01/21 03:40:54;;;;;;;9.30;3.03;;;;;;;;;;5044326;28;20504;-69
2022/01/21 03:43:22;;;;;;;7.10;2.85;;;;;;;;;;5044419;28;20374;-69
2022/01/21 03:45:50;;;;;;;8.32;2.90;;;;;;;;;;5044004;28;20218;-69
2022/01/21 03:48:17;;;;;;;6.10;2.90;;;;;;;;;;5044355;28;20198;-69
2022/01/21 03:50:44;;;;;;;8.88;2.42;;;;;;;;;;5044156;28;20236;-69
2022/01/21 03:53:10;;;;;;;6.40;2.83;;;;;;;;;;5044289;28;20206;-69
2022/01/21 03:55:37;;;;;;;8.98;3.03;;;;;;;;;;5044053;28;20198;-69
2022/01/21 03:58:04;;;;;;;11.15;3.00;;;;;;;;;;5043841;28;20205;-69
2022/01/21 04:00:32;;;;;;;6.55;3.10;;;;;;;;;;5043940;28;20193;-69
2022/01/21 04:03:00;;;;;;;10.30;3.10;;;;;;;;;;5044081;28;20198;-69
2022/01/21 04:05:27;;;;;;;10.07;3.00;;;;;;;;;;5043977;28;20414;-69
2022/01/21 04:07:53;;;;;;;8.45;2.88;;;;;;;;;;5044104;28;20390;-69
2022/01/21 04:10:20;;;;;;;10.05;3.50;;;;;;;;;;5043736;28;20217;-69
2022/01/21 04:12:46;;;;;;;5.43;2.65;;;;;;;;;;5043797;28;20198;-69
2022/01/21 04:15:13;;;;;;;9.63;3.00;;;;;;;;;;5043758;28;20528;-69
2022/01/21 04:17:39;;;;;;;8.23;3.20;;;;;;;;;;5043552;28;20190;-69
2022/01/21 04:20:09;;;;;;;13.60;3.63;;;;;;;;;;5044103;28;20217;-69
2022/01/21 04:22:36;;;;;;;9.15;3.20;;;;;;;;;;5043783;28;20206;-69
2022/01/21 04:25:02;;;;;;;6.55;2.65;;;;;;;;;;5043750;28;20396;-69
2022/01/21 04:27:29;;;;;;;8.55;3.70;;;;;;;;;;5043271;28;20236;-69
2022/01/21 04:29:55;;;;;;;13.65;3.30;;;;;;;;;;5043522;28;20426;-69
2022/01/21 04:32:22;;;;;;;5.63;2.53;;;;;;;;;;5043784;28;20204;-69
2022/01/21 04:34:48;;;;;;;6.95;3.15;;;;;;;;;;5043543;28;20394;-69
2022/01/21 04:37:17;;;;;;;11.35;3.28;;;;;;;;;;5043055;28;20201;-69
2022/01/21 04:39:49;;;;;;;6.97;3.17;;;;;;;;;;5043124;28;20260;-69
2022/01/21 04:47:44;;;;;;;9.52;3.75;;;;;;;;;;5043274;28;20244;-69
2022/01/21 04:50:13;;;;;;;5.55;3.10;;;;;;;;;;5023297;28;20391;-69
2022/01/21 04:52:41;;;;;;;15.20;4.38;;;;;;;;;;5023769;28;20237;-69
2022/01/21 04:55:08;;;;;;;5.03;2.58;;;;;;;;;;5039630;28;20209;-69
2022/01/21 04:57:34;;;;;;;5.07;2.97;;;;;;;;;;5043111;28;20205;-69
2022/01/21 05:00:01;;;;;;;7.78;3.55;;;;;;;;;;5042906;28;20194;-69
2022/01/21 05:02:28;;;;;;;8.45;3.63;;;;;;;;;;5042840;28;20214;-69
2022/01/21 05:04:55;;;;;;;12.63;4.38;;;;;;;;;;5042575;28;20543;-69
2022/01/21 05:07:24;;;;;;;5.40;2.88;;;;;;;;;;5042578;28;20198;-69
2022/01/21 05:09:52;;;;;;;7.43;3.10;;;;;;;;;;5042033;28;20389;-69
2022/01/21 05:12:21;;;;;;;10.73;3.20;;;;;;;;;;5042842;28;20204;-69
2022/01/21 05:15:03;;;;;;;11.50;3.75;;;;;;;;;;5042770;28;20240;-69
2022/01/21 05:17:30;;;;;;;15.52;5.40;;;;;;;;;;5042387;28;20205;-69
2022/01/21 05:19:57;;;;;;;9.02;3.42;;;;;;;;;;5042586;28;20538;-69
2022/01/21 05:22:23;;;;;;;11.23;3.47;;;;;;;;;;5042665;28;20205;-69
2022/01/21 05:24:50;;;;;;;9.32;3.50;;;;;;;;;;5042620;28;20202;-69
2022/01/21 05:27:18;;;;;;;10.70;3.92;;;;;;;;;;5042101;28;20332;-69
2022/01/21 05:29:44;;;;;;;11.60;4.10;;;;;;;;;;5042138;28;20365;-69
2022/01/21 05:32:11;;;;;;;13.65;3.75;;;;;;;;;;5042320;28;20205;-69
2022/01/21 05:34:37;;;;;;;7.43;3.60;;;;;;;;;;5042474;28;20198;-69
2022/01/21 05:37:04;;;;;;;8.48;3.58;;;;;;;;;;5042189;28;20194;-69
2022/01/21 05:39:30;;;;;;;8.27;3.67;;;;;;;;;;5042286;28;20198;-69
2022/01/21 05:41:57;;;;;;;12.52;3.97;;;;;;;;;;5042473;28;20265;-69
2022/01/21 05:47:06;;;;;;;8.95;3.92;;;;;;;;;;5041850;28;20190;-69
2022/01/21 05:49:35;;;;;;;9.82;4.82;;;;;;;;;;5042260;28;20225;-69
2022/01/21 05:52:04;;;;;;;9.57;3.97;;;;;;;;;;5041938;28;20556;-69
2022/01/21 05:54:31;;;;;;;14.05;3.63;;;;;;;;;;5042326;28;20229;-69
2022/01/21 05:56:57;;;;;;;8.88;3.55;;;;;;;;;;5042360;28;20374;-69
2022/01/21 05:59:25;;;;;;;8.55;3.58;;;;;;;;;;5041081;28;20193;-69
2022/01/21 06:01:52;;;;;;;10.80;3.78;;;;;;;;;;5041240;28;20190;-69
2022/01/21 06:04:18;;;;;;;12.25;4.07;;;;;;;;;;5042010;28;20197;-69
2022/01/21 06:06:45;;;;;;;11.60;3.47;;;;;;;;;;5041755;28;20218;-69
2022/01/21 06:09:11;;;;;;;10.20;3.60;;;;;;;;;;5041442;28;20193;-69
2022/01/21 06:11:38;;;;;;;13.07;4.30;;;;;;;;;;5041847;28;20244;-69
2022/01/21 06:14:05;;;;;;;9.82;4.25;;;;;;;;;;5042135;28;20198;-69
2022/01/21 06:16:34;;;;;;;7.35;4.05;;;;;;;;;;5041762;28;20220;-69
2022/01/21 06:19:00;;;;;;;11.98;4.43;;;;;;;;;;5041766;28;20223;-69
2022/01/21 06:21:27;;;;;;;10.38;4.13;;;;;;;;;;5042817;28;20414;-69
2022/01/21 06:23:53;;;;;;;8.93;3.42;;;;;;;;;;5028270;28;20663;-69
2022/01/21 06:26:20;;;;;;;9.82;4.00;;;;;;;;;;5025996;28;20202;-69
2022/01/21 06:28:46;;;;;;;10.30;4.97;;;;;;;;;;5040453;28;20259;-69
2022/01/21 06:31:13;;;;;;;13.40;4.53;;;;;;;;;;5040781;28;20237;-69
2022/01/21 06:33:40;;;;;;;10.80;4.70;;;;;;;;;;5031407;28;20225;-69
2022/01/21 06:36:07;;;;;;;8.88;4.68;;;;;;;;;;5040012;28;20221;-69
2022/01/21 06:38:35;;;;;;;14.65;4.50;;;;;;;;;;5040324;28;20523;-69
2022/01/21 06:41:02;;;;;;;11.90;4.45;;;;;;;;;;5034449;28;20198;-68
2022/01/21 06:43:28;;;;;;;12.75;4.85;;;;;;;;;;5040529;28;20210;-68
2022/01/21 06:45:55;;;;;;;13.27;5.22;;;;;;;;;;5040141;28;20503;-69
2022/01/21 06:48:21;;;;;;;10.60;5.20;;;;;;;;;;5040116;28;20209;-63
2022/01/21 06:50:49;;;;;;;10.85;4.90;;;;;;;;;;5040501;28;20402;-63
2022/01/21 06:53:15;;;;;;;11.57;5.13;;;;;;;;;;5039581;28;20209;-63
2022/01/21 06:55:42;;;;;;;12.23;5.38;;;;;;;;;;5040101;28;20233;-63
2022/01/21 06:58:08;;;;;;;10.60;4.18;;;;;;;;;;5040101;28;20213;-63
2022/01/21 07:00:35;;;;;;;11.73;4.22;;;;;;;;;;5040153;28;20206;-63
2022/01/21 07:03:01;;;;;;;13.73;4.95;;;;;;;;;;5039621;28;20539;-63
2022/01/21 07:05:29;;;;;;;11.85;4.80;;;;;;;;;;5039741;28;20233;-62
2022/01/21 07:07:58;;;;;;;15.13;4.85;;;;;;;;;;5039724;28;20206;-63
2022/01/21 07:10:24;;;;;;;22.35;5.55;;;;;;;;;;5040152;28;20484;-63
2022/01/21 07:12:51;;;;;;;20.10;5.32;;;;;;;;;;5040124;28;20210;-63
2022/01/21 07:15:19;;;;;;;49.05;6.65;;;;;;;;;;5039109;28;20289;-63
2022/01/21 07:17:45;;;;;;;24.75;4.97;;;;;;;;;;5039745;28;20198;-62
2022/01/21 07:20:13;;;;;;;23.33;5.00;;;;;;;;;;5039192;28;20455;-63
2022/01/21 07:22:39;;;;;;;9.70;4.97;;;;;;;;;;5039167;28;20357;-62
2022/01/21 07:25:07;;;;;;;96.40;10.32;;;;;;;;;;5039547;28;20211;-62
2022/01/21 07:27:34;;;;;;;29.60;4.93;;;;;;;;;;5039637;28;20214;-63
2022/01/21 07:30:01;;;;;;;11.02;4.80;;;;;;;;;;5039694;28;20218;-63
2022/01/21 07:32:27;;;;;;;13.15;5.00;;;;;;;;;;5038511;28;20226;-63
2022/01/21 07:34:53;;;;;;;14.15;4.97;;;;;;;;;;5038630;28;20209;-62
2022/01/21 07:37:20;;;;;;;13.30;4.72;;;;;;;;;;5039671;28;20202;-63
2022/01/21 07:39:46;;;;;;;10.80;4.30;;;;;;;;;;5039955;28;20412;-63
2022/01/21 07:42:14;;;;;;;12.82;5.95;;;;;;;;;;5039220;28;20213;-63
2022/01/21 07:44:40;;;;;;;10.68;4.97;;;;;;;;;;5039096;28;20210;-62
2022/01/21 07:47:07;;;;;;;16.23;5.53;;;;;;;;;;5038367;28;20256;-63
2022/01/21 07:49:33;;;;;;;13.55;5.32;;;;;;;;;;5039083;28;20484;-63
2022/01/21 07:52:00;;;;;;;14.23;5.55;;;;;;;;;;5039312;28;20232;-59
2022/01/21 07:54:26;;;;;;;10.30;4.90;;;;;;;;;;5038968;28;20252;-62
2022/01/21 07:56:53;;;;;;;12.48;5.43;;;;;;;;;;5039178;28;20291;-62
2022/01/21 07:59:21;;;;;;;20.38;6.20;;;;;;;;;;5038867;28;20202;-63
2022/01/21 08:01:47;;;;;;;17.88;6.97;;;;;;;;;;5039143;28;20236;-63
2022/01/21 08:04:13;;;;;;;14.93;5.95;;;;;;;;;;5038258;28;20210;-63
2022/01/21 08:06:40;;;;;;;18.30;5.93;;;;;;;;;;5038554;28;20416;-62
2022/01/21 08:09:07;;;;;;;14.15;5.40;;;;;;;;;;5039139;28;20458;-62
2022/01/21 08:11:34;;;;;;;14.07;5.70;;;;;;;;;;5038767;28;20225;-62
2022/01/21 08:14:00;;;;;;;11.60;5.25;;;;;;;;;;5038725;28;20206;-62
2022/01/21 08:16:28;;;;;;;16.85;5.50;;;;;;;;;;5038034;28;20218;-63
2022/01/21 08:18:56;;;;;;;14.07;5.22;;;;;;;;;;5038423;28;20231;-62
2022/01/21 08:21:23;;;;;;;13.82;5.55;;;;;;;;;;5038646;28;20529;-62
2022/01/21 08:23:50;;;;;;;14.20;4.90;;;;;;;;;;5038346;28;20545;-63
2022/01/21 08:26:19;;;;;;;14.20;5.72;;;;;;;;;;5038115;28;20217;-62
2022/01/21 08:28:45;;;;;;;16.52;5.13;;;;;;;;;;5038366;28;20214;-62
2022/01/21 08:31:12;;;;;;;12.32;5.18;;;;;;;;;;5038286;28;20260;-62
2022/01/21 08:33:40;;;;;;;14.50;5.55;;;;;;;;;;5038154;28;20311;-61
2022/01/21 08:36:07;;;;;;;14.52;4.90;;;;;;;;;;5037891;28;20264;-61
2022/01/21 08:38:33;;;;;;;11.90;5.35;;;;;;;;;;5037817;28;20240;-61
2022/01/21 08:41:00;;;;;;;11.32;5.20;;;;;;;;;;5036927;28;20228;-61
2022/01/21 08:43:26;;;;;;;12.68;5.95;;;;;;;;;;5037679;28;20582;-61
2022/01/21 08:45:53;;;;;;;14.07;5.47;;;;;;;;;;5036290;28;20249;-62
2022/01/21 08:48:19;;;;;;;17.00;6.05;;;;;;;;;;5037144;28;20290;-62
2022/01/21 08:50:47;;;;;;;14.18;5.20;;;;;;;;;;5037550;28;20245;-60
2022/01/21 08:55:54;;;;;;;14.50;5.55;;;;;;;;;;5036650;28;20237;-63
2022/01/21 08:58:20;;;;;;;10.07;5.25;;;;;;;;;;5036685;28;20232;-64
2022/01/21 09:00:47;;;;;;;13.85;5.30;;;;;;;;;;5037058;28;20340;-63
2022/01/21 09:03:13;;;;;;;15.82;6.63;;;;;;;;;;5036412;28;20676;-62
2022/01/21 09:05:40;;;;;;;18.17;5.53;;;;;;;;;;5036384;28;20222;-62
2022/01/21 09:08:08;;;;;;;18.95;5.38;;;;;;;;;;5036995;28;20693;-64
2022/01/21 09:10:34;;;;;;;20.85;6.60;;;;;;;;;;5036657;28;20213;-65
2022/01/21 09:13:01;;;;;;;13.43;5.25;;;;;;;;;;5036519;28;20221;-62
2022/01/21 09:15:28;;;;;;;12.82;4.75;;;;;;;;;;5036629;28;20212;-64
2022/01/21 09:18:02;;;;;;;19.00;5.65;;;;;;;;;;5036448;28;20198;-64
2022/01/21 09:20:29;;;;;;;17.60;5.95;;;;;;;;;;5036885;28;20549;-64
2022/01/21 09:22:55;;;;;;;14.43;5.35;;;;;;;;;;5037932;28;20206;-64
2022/01/21 09:25:23;;;;;;;14.20;6.00;;;;;;;;;;5037395;28;20210;-64
2022/01/21 09:27:49;;;;;;;18.48;5.68;;;;;;;;;;5036714;28;20221;-64
2022/01/21 09:30:17;;;;;;;26.58;6.20;;;;;;;;;;5036713;28;20217;-64
2022/01/21 09:32:43;;;;;;;17.45;5.70;;;;;;;;;;5036327;28;20260;-64
2022/01/21 09:35:10;;;;;;;8.85;5.07;;;;;;;;;;5036446;28;20209;-64
2022/01/21 09:37:36;;;;;;;14.18;5.53;;;;;;;;;;5036553;28;20209;-64
2022/01/21 09:40:03;;;;;;;20.10;5.95;;;;;;;;;;5031511;28;20210;-64
2022/01/21 09:42:34;;;;;;;16.38;5.75;;;;;;;;;;5036466;28;20586;-64
2022/01/21 09:45:02;;;;;;;13.70;5.95;;;;;;;;;;5036665;28;20397;-64
2022/01/21 09:47:31;;;;;;;14.95;5.80;;;;;;;;;;5036555;28;20209;-64
2022/01/21 09:49:58;;;;;;;20.08;6.50;;;;;;;;;;5037055;28;20244;-64
2022/01/21 09:52:24;;;;;;;17.35;5.75;;;;;;;;;;5036016;28;20536;-64
2022/01/21 09:54:53;;;;;;;16.85;5.70;;;;;;;;;;5036581;28;20209;-64
2022/01/21 09:57:20;;;;;;;15.55;5.13;;;;;;;;;;5035438;28;20576;-64
2022/01/21 09:59:48;;;;;;;15.60;5.63;;;;;;;;;;5036654;28;20213;-63
2022/01/21 10:02:17;;;;;;;7.53;5.45;;;;;;;;;;5036457;28;20206;-64
2022/01/21 10:04:43;;;;;;;10.25;5.10;;;;;;;;;;5036446;28;20315;-64
2022/01/21 10:07:11;;;;;;;20.33;5.63;;;;;;;;;;5036331;28;20209;-64
2022/01/21 10:09:38;;;;;;;11.10;5.30;;;;;;;;;;5036805;28;20209;-64
2022/01/21 10:12:05;;;;;;;17.27;5.68;;;;;;;;;;5036813;28;20437;-64
2022/01/21 10:14:32;;;;;;;23.77;6.28;;;;;;;;;;5036135;28;20403;-65
2022/01/21 10:17:01;;;;;;;16.08;5.70;;;;;;;;;;5036508;28;20213;-64
2022/01/21 10:19:28;;;;;;;16.13;6.03;;;;;;;;;;5036576;28;20440;-64
2022/01/21 10:21:59;;;;;;;17.92;7.10;;;;;;;;;;5036936;28;20504;-65
2022/01/21 10:24:26;;;;;;;17.05;6.70;;;;;;;;;;5036164;28;20582;-65
2022/01/21 10:26:53;;;;;;;15.23;6.35;;;;;;;;;;5036863;28;20205;-65
2022/01/21 10:29:20;;;;;;;12.93;6.78;;;;;;;;;;5037026;28;20217;-65
2022/01/21 10:31:54;;;;;;;12.82;5.72;;;;;;;;;;5036642;28;20228;-64
2022/01/21 10:34:26;;;;;;;13.93;6.55;;;;;;;;;;5035763;28;20212;-65
2022/01/21 10:36:56;;;;;;;18.45;6.53;;;;;;;;;;5036212;28;20205;-65
2022/01/21 10:39:30;;;;;;;31.45;7.15;;;;;;;;;;5036568;28;20210;-65
2022/01/21 10:41:57;;;;;;;16.65;7.03;;;;;;;;;;5035756;28;20244;-65
2022/01/21 10:44:25;;;;;;;12.90;6.57;;;;;;;;;;5036082;28;20555;-65
2022/01/21 10:47:01;;;;;;;16.85;6.53;;;;;;;;;;5036440;28;20202;-65
2022/01/21 10:49:29;;;;;;;10.88;5.80;;;;;;;;;;5036758;28;20209;-65
2022/01/21 10:51:56;;;;;;;13.32;5.95;;;;;;;;;;5035431;28;20218;-65
2022/01/21 10:54:26;;;;;;;20.92;6.38;;;;;;;;;;5036091;28;20525;-65
2022/01/21 10:57:06;;;;;;;22.73;8.20;;;;;;;;;;5036076;28;21143;-65
2022/01/21 10:59:49;;;;;;;13.80;6.28;;;;;;;;;;5036637;28;20213;-65
2022/01/21 11:02:16;;;;;;;20.60;6.38;;;;;;;;;;5033169;28;20213;-64
2022/01/21 11:04:44;;;;;;;21.10;6.80;;;;;;;;;;5035130;28;20217;-64
2022/01/21 11:07:13;;;;;;;14.63;6.50;;;;;;;;;;5036228;28;20197;-63
2022/01/21 11:09:40;;;;;;;13.45;6.07;;;;;;;;;;5033830;28;20324;-63
2022/01/21 11:12:08;;;;;;;16.20;5.97;;;;;;;;;;5039921;28;20225;-63
2022/01/21 11:14:35;;;;;;;15.75;6.15;;;;;;;;;;5018783;28;20277;-61
2022/01/21 11:17:05;;;;;;;15.57;6.47;;;;;;;;;;5025603;28;20233;-62
2022/01/21 11:19:34;;;;;;;15.82;6.07;;;;;;;;;;5039817;28;20252;-62
2022/01/21 11:22:04;;;;;;;33.90;7.43;;;;;;;;;;5039386;28;20209;-62
2022/01/21 11:24:30;;;;;;;57.63;8.93;;;;;;;;;;5038308;28;20413;-62
2022/01/21 11:27:15;;;;;;;18.85;5.40;;;;;;;;;;5039379;28;20210;-62
2022/01/21 11:29:42;;;;;;;16.25;5.53;;;;;;;;;;5039937;28;20210;-61
2022/01/21 11:32:08;;;;;;;40.22;7.55;;;;;;;;;;5039383;28;20429;-63
2022/01/21 11:34:35;;;;;;;18.35;5.20;;;;;;;;;;5036639;28;20213;-62
2022/01/21 11:37:04;;;;;;;38.50;7.35;;;;;;;;;;5021452;28;20260;-62
2022/01/21 11:39:31;;;;;;;25.48;5.45;;;;;;;;;;5035760;28;20220;-63
2022/01/21 11:41:59;;;;;;;18.30;5.00;;;;;;;;;;5039142;28;20205;-62
2022/01/21 11:44:28;;;;;;;7.93;4.10;;;;;;;;;;5038959;28;20543;-63
2022/01/21 11:47:14;;;;;;;20.63;4.72;;;;;;;;;;5033494;28;21416;-62
2022/01/21 11:49:41;;;;;;;28.67;5.60;;;;;;;;;;5019693;28;20249;-63
2022/01/21 11:52:10;;;;;;;13.95;3.83;;;;;;;;;;5037660;28;20516;-63
2022/01/21 11:54:38;;;;;;;16.00;4.45;;;;;;;;;;5038374;28;20213;-62
2022/01/21 11:57:06;;;;;;;11.82;4.38;;;;;;;;;;5033679;28;20474;-61
2022/01/21 11:59:39;;;;;;;22.63;5.03;;;;;;;;;;5039688;28;20209;-63
2022/01/21 12:02:18;;;;;;;13.32;4.47;;;;;;;;;;5030836;28;20273;-63
2022/01/21 12:04:46;;;;;;;14.65;4.45;;;;;;;;;;5037318;28;20216;-64
2022/01/21 12:07:30;;;;;;;37.45;7.28;;;;;;;;;;5038501;28;20424;-64
2022/01/21 12:09:59;;;;;;;11.18;3.80;;;;;;;;;;5031562;28;20209;-64
2022/01/21 12:12:26;;;;;;;11.23;3.50;;;;;;;;;;5037721;28;20256;-64
2022/01/21 12:14:59;;;;;;;22.88;4.47;;;;;;;;;;5038628;28;20521;-64
2022/01/21 12:17:40;;;;;;;12.90;3.58;;;;;;;;;;5034618;28;20503;-64
2022/01/21 12:20:07;;;;;;;20.13;3.83;;;;;;;;;;5035110;28;20209;-64
2022/01/21 12:22:34;;;;;;;12.45;3.83;;;;;;;;;;5037367;28;20212;-64
2022/01/21 12:25:06;;;;;;;9.77;4.75;;;;;;;;;;5038243;28;20512;-63
2022/01/21 12:27:33;;;;;;;15.70;4.97;;;;;;;;;;5037664;28;20210;-64
2022/01/21 12:30:19;;;;;;;10.18;3.65;;;;;;;;;;5037007;28;20233;-62
2022/01/21 12:32:51;;;;;;;38.42;5.78;;;;;;;;;;5037354;28;20243;-63
2022/01/21 12:35:19;;;;;;;22.67;5.85;;;;;;;;;;5036640;28;20508;-63
2022/01/21 12:39:05;;;;;;;13.93;3.72;;;;;;;;;;5038374;28;20216;-64
2022/01/21 12:40:52;;;;;;;9.63;3.47;;;;;;;;;;5037764;28;20521;-64
2022/01/21 12:43:42;;;;;;;13.15;3.72;;;;;;;;;;5036717;28;20205;-62
2022/01/21 12:46:10;;;;;;;9.52;4.25;;;;;;;;;;5022076;28;20472;-63
2022/01/21 12:48:37;;;;;;;10.07;3.47;;;;;;;;;;5037782;28;20206;-63
2022/01/21 12:51:13;;;;;;;6.90;3.08;;;;;;;;;;5037233;28;20212;-64
2022/01/21 12:55:55;;;;;;;14.80;3.72;;;;;;;;;;5033948;28;20230;-63
2022/01/21 12:56:26;;;;;;;11.45;3.30;;;;;;;;;;5017713;28;20249;-63
2022/01/21 12:58:53;;;;;;;13.50;3.55;;;;;;;;;;5019863;28;20268;-63
2022/01/21 13:01:20;;;;;;;12.27;3.55;;;;;;;;;;5037986;28;20209;-63
2022/01/21 13:03:48;;;;;;;13.15;3.67;;;;;;;;;;5036962;28;20308;-63
2022/01/21 13:06:17;;;;;;;8.52;3.72;;;;;;;;;;5037039;28;20544;-63
2022/01/21 13:08:51;;;;;;;12.80;4.55;;;;;;;;;;5037758;28;20215;-63
2022/01/21 13:11:21;;;;;;;11.07;3.50;;;;;;;;;;5037272;28;20213;-63
2022/01/21 13:13:52;;;;;;;11.93;2.83;;;;;;;;;;5035758;28;20253;-63
2022/01/21 13:16:26;;;;;;;10.10;3.05;;;;;;;;;;5036026;28;20454;-63
2022/01/21 13:18:59;;;;;;;6.32;2.90;;;;;;;;;;5037527;28;20213;-63
2022/01/21 13:21:25;;;;;;;14.82;3.50;;;;;;;;;;5037499;28;20210;-63
2022/01/21 13:23:56;;;;;;;6.57;3.38;;;;;;;;;;5037256;28;20213;-63
2022/01/21 13:26:24;;;;;;;9.88;3.28;;;;;;;;;;5025186;28;20504;-64
2022/01/21 13:29:03;;;;;;;9.23;3.42;;;;;;;;;;5037146;28;20280;-63
2022/01/21 13:31:31;;;;;;;11.48;3.30;;;;;;;;;;5036543;28;20213;-64
2022/01/21 13:34:08;;;;;;;13.20;2.95;;;;;;;;;;5036930;28;20229;-63
2022/01/21 13:36:38;;;;;;;11.38;3.95;;;;;;;;;;5036264;28;20413;-62
2022/01/21 13:39:08;;;;;;;12.38;3.03;;;;;;;;;;5037347;28;20519;-63
2022/01/21 13:41:46;;;;;;;7.20;2.35;;;;;;;;;;5036913;28;20209;-63
2022/01/21 13:44:13;;;;;;;8.85;3.08;;;;;;;;;;5017195;28;20326;-63
2022/01/21 13:46:40;;;;;;;10.45;3.10;;;;;;;;;;5031463;28;20516;-62
2022/01/21 13:49:06;;;;;;;10.38;3.67;;;;;;;;;;5037121;28;20419;-64
2022/01/21 13:51:33;;;;;;;15.27;3.35;;;;;;;;;;5037211;28;20216;-63
2022/01/21 13:54:02;;;;;;;9.38;2.47;;;;;;;;;;5035877;28;20222;-63
2022/01/21 13:56:29;;;;;;;9.05;2.92;;;;;;;;;;5035836;28;20276;-62
2022/01/21 13:58:56;;;;;;;9.77;2.85;;;;;;;;;;5036527;28;20209;-63
2022/01/21 14:01:28;;;;;;;6.25;2.78;;;;;;;;;;5035841;28;20402;-62
2022/01/21 14:03:57;;;;;;;10.15;3.10;;;;;;;;;;5036208;28;20335;-63
2022/01/21 14:06:24;;;;;;;9.48;2.75;;;;;;;;;;5035257;28;20283;-64
2022/01/21 14:08:52;;;;;;;11.38;2.80;;;;;;;;;;5035968;28;20524;-63
2022/01/21 14:11:24;;;;;;;12.48;3.28;;;;;;;;;;5036706;28;20516;-63
2022/01/21 14:13:52;;;;;;;9.57;3.08;;;;;;;;;;5035829;28;20233;-63
2022/01/21 14:16:28;;;;;;;10.20;2.97;;;;;;;;;;5016815;28;20218;-63
2022/01/21 14:18:57;;;;;;;12.57;2.78;;;;;;;;;;5030974;28;20528;-63
2022/01/21 14:21:25;;;;;;;8.82;2.88;;;;;;;;;;5036353;28;20210;-64
2022/01/21 14:23:52;;;;;;;4.60;2.08;;;;;;;;;;5036157;28;20202;-64
2022/01/21 14:26:21;;;;;;;6.82;2.40;;;;;;;;;;5036666;28;20209;-64
2022/01/21 14:28:49;;;;;;;11.10;2.95;;;;;;;;;;5036828;28;20201;-63
2022/01/21 14:31:29;;;;;;;6.20;2.28;;;;;;;;;;5024912;28;21283;-63
2022/01/21 14:33:57;;;;;;;8.27;2.17;;;;;;;;;;5027515;28;20420;-63
2022/01/21 14:36:23;;;;;;;5.50;2.10;;;;;;;;;;5035371;28;20226;-63
2022/01/21 14:38:50;;;;;;;8.57;2.47;;;;;;;;;;5036392;28;20210;-63
2022/01/21 14:41:17;;;;;;;7.38;2.60;;;;;;;;;;5036654;28;20210;-63
2022/01/21 14:43:49;;;;;;;6.50;2.30;;;;;;;;;;5038506;28;20244;-62
2022/01/21 14:46:22;;;;;;;13.05;3.13;;;;;;;;;;5028232;28;20412;-63
2022/01/21 14:48:57;;;;;;;13.65;2.97;;;;;;;;;;5040439;28;20209;-63
2022/01/21 14:51:32;;;;;;;11.77;2.55;;;;;;;;;;5040471;28;20237;-63
2022/01/21 14:54:07;;;;;;;12.15;2.55;;;;;;;;;;5039012;28;20244;-63
2022/01/21 14:56:34;;;;;;;5.53;2.58;;;;;;;;;;5019748;28;20210;-63
2022/01/21 14:59:07;;;;;;;11.82;2.88;;;;;;;;;;5020329;28;20210;-63
2022/01/21 15:01:33;;;;;;;10.68;2.85;;;;;;;;;;5020104;28;20213;-63
2022/01/21 15:04:11;;;;;;;10.65;3.35;;;;;;;;;;5031850;28;20210;-62
2022/01/21 15:06:39;;;;;;;11.80;2.72;;;;;;;;;;5037677;28;20229;-62
2022/01/21 15:09:06;;;;;;;14.07;2.58;;;;;;;;;;5039698;28;20216;-63
2022/01/21 15:11:54;;;;;;;11.32;2.67;;;;;;;;;;5039835;28;20468;-63
2022/01/21 15:14:25;;;;;;;9.82;2.60;;;;;;;;;;5038644;28;20226;-63
2022/01/21 15:16:51;;;;;;;11.50;2.70;;;;;;;;;;5039144;28;20272;-62
2022/01/21 15:19:19;;;;;;;9.00;2.67;;;;;;;;;;5039804;28;20209;-63
2022/01/21 15:21:47;;;;;;;12.00;3.13;;;;;;;;;;5039822;28;20217;-64